Terminal Aerodrome Forecast
Issued by NWS

Current Version | Previous Version | Text Only | Print | Product List | Glossary Off
Versions: 1 2 3 4 5 6 7 8 9 10 11 12 13 14 15 16

000
FTUS41 KPBZ 182328
TAFMGW
TAF
KMGW 182328Z 1900/1924 19012G22KT P6SM SHRA OVC040
     FM190400 21015G32KT 4SM -SHRA OVC025
     FM191000 28014G31KT P6SM VCSH OVC015
     FM191800 30012G25KT P6SM BKN025=

USA.gov is the U.S. government's official web portal to all federal, state and local government web resources and services.